Time;durP1;ratioP1;P1;durP2;ratioP2;P2;SDS_P1;SDS_P2;PMS_P1;PMS_P2;Temp;Humidity;BMP_temperature;BMP_pressure;BME280_temperature;BME280_humidity;BME280_pressure;Samples;Min_cycle;Max_cycle;Signal;HPM_P1;HPM_P2
2021/08/19 00:02:20;;;;;;;;;2.00;2.00;;;;;;;;2568296;30;150523;-78
2021/08/19 00:04:49;;;;;;;;;1.00;1.00;;;;;;;;2566985;30;151018;-80
2021/08/19 00:07:17;;;;;;;;;1.33;1.33;;;;;;;;2566021;30;151849;-79
2021/08/19 00:09:46;;;;;;;;;2.00;2.00;;;;;;;;2570344;30;149432;-79
2021/08/19 00:12:14;;;;;;;;;1.00;1.00;;;;;;;;2566310;30;150626;-79
2021/08/19 00:14:42;;;;;;;;;2.00;2.00;;;;;;;;2568423;30;151192;-78
2021/08/19 00:17:13;;;;;;;;;3.33;3.33;;;;;;;;2569203;30;149611;-79
2021/08/19 00:19:42;;;;;;;;;2.67;2.33;;;;;;;;2568262;30;151001;-79
2021/08/19 00:22:10;;;;;;;;;1.67;1.67;;;;;;;;2568098;30;149554;-79
2021/08/19 00:24:38;;;;;;;;;2.33;2.33;;;;;;;;2565498;30;151415;-79
2021/08/19 00:27:07;;;;;;;;;3.33;3.00;;;;;;;;2566503;30;151148;-78
2021/08/19 00:29:35;;;;;;;;;2.00;2.00;;;;;;;;2565342;38;149638;-80
2021/08/19 00:32:05;;;;;;;;;3.67;3.33;;;;;;;;2566289;38;151418;-79
2021/08/19 00:34:36;;;;;;;;;2.67;2.67;;;;;;;;2567841;30;151250;-79
2021/08/19 00:37:04;;;;;;;;;2.00;2.00;;;;;;;;2565788;30;149265;-79
2021/08/19 00:39:33;;;;;;;;;2.33;1.67;;;;;;;;2569232;30;151249;-81
2021/08/19 00:42:01;;;;;;;;;2.67;2.00;;;;;;;;2566287;30;149603;-79
2021/08/19 00:44:30;;;;;;;;;1.33;1.33;;;;;;;;2566635;38;151164;-77
2021/08/19 00:46:58;;;;;;;;;4.33;2.00;;;;;;;;2567358;30;152472;-79
2021/08/19 00:49:26;;;;;;;;;3.00;3.00;;;;;;;;2567248;30;149983;-78
2021/08/19 00:51:58;;;;;;;;;2.50;2.00;;;;;;;;2565572;38;151444;-80
2021/08/19 00:54:28;;;;;;;;;1.33;1.33;;;;;;;;2566291;30;150265;-78
2021/08/19 00:56:57;;;;;;;;;2.00;2.00;;;;;;;;2567146;38;150687;-79
2021/08/19 00:59:26;;;;;;;;;2.00;2.00;;;;;;;;2569847;30;151130;-79
2021/08/19 01:01:55;;;;;;;;;2.33;2.33;;;;;;;;2569443;38;151980;-80
2021/08/19 01:04:24;;;;;;;;;3.00;3.00;;;;;;;;2567945;30;151291;-79
2021/08/19 01:06:52;;;;;;;;;4.00;4.00;;;;;;;;2566565;30;151154;-80
2021/08/19 01:09:23;;;;;;;;;3.00;3.00;;;;;;;;2569852;30;149292;-79
2021/08/19 01:11:51;;;;;;;;;3.00;2.00;;;;;;;;2566397;30;151491;-79
2021/08/19 01:14:20;;;;;;;;;3.00;3.00;;;;;;;;2568271;30;151167;-79
2021/08/19 01:16:49;;;;;;;;;5.00;2.67;;;;;;;;2566454;38;149351;-79
2021/08/19 01:19:17;;;;;;;;;2.67;2.67;;;;;;;;2566602;38;151353;-79
2021/08/19 19:02:36;;;;;;;;;3.00;3.00;;;;;;;;2511920;38;3177824;-77
2021/08/19 19:05:05;;;;;;;;;2.00;2.00;;;;;;;;2568799;38;151960;-77
2021/08/19 19:07:34;;;;;;;;;1.67;1.33;;;;;;;;2569677;38;150301;-77
2021/08/19 19:10:02;;;;;;;;;4.00;4.00;;;;;;;;2567648;38;151314;-77
2021/08/19 19:12:34;;;;;;;;;13.00;10.33;;;;;;;;2570471;30;151662;-76
2021/08/19 19:15:03;;;;;;;;;14.67;14.33;;;;;;;;2568845;38;150319;-78
2021/08/19 19:17:31;;;;;;;;;31.00;27.75;;;;;;;;2569660;38;151169;-78
2021/08/19 19:20:02;;;;;;;;;16.33;13.67;;;;;;;;2570956;30;151164;-73
2021/08/19 19:22:31;;;;;;;;;19.33;16.00;;;;;;;;2607258;30;149613;-80
2021/08/19 19:24:59;;;;;;;;;13.00;13.00;;;;;;;;2566355;38;150650;-72
2021/08/19 19:27:28;;;;;;;;;10.00;9.00;;;;;;;;2568896;30;150053;-72
2021/08/19 19:29:56;;;;;;;;;8.00;7.00;;;;;;;;2567652;30;150922;-70
2021/08/19 19:32:25;;;;;;;;;4.00;4.00;;;;;;;;2569811;30;151348;-70
2021/08/19 19:34:54;;;;;;;;;6.00;6.00;;;;;;;;2568359;38;149693;-72
2021/08/19 19:37:25;;;;;;;;;6.67;5.00;;;;;;;;2569117;38;150625;-71
2021/08/19 19:39:53;;;;;;;;;2.50;2.50;;;;;;;;2572155;30;152004;-72
2021/08/19 19:42:21;;;;;;;;;4.00;2.00;;;;;;;;2571717;30;149415;-70
2021/08/19 19:44:50;;;;;;;;;7.33;7.33;;;;;;;;2576567;38;150515;-72
2021/08/19 19:47:18;;;;;;;;;4.67;3.33;;;;;;;;2572786;30;149913;-72
2021/08/19 19:49:46;;;;;;;;;3.00;2.00;;;;;;;;2568029;38;150610;-73
2021/08/19 19:52:15;;;;;;;;;1.00;1.00;;;;;;;;2568556;38;150547;-71
2021/08/19 19:54:46;;;;;;;;;2.00;1.67;;;;;;;;2569798;30;149410;-82
2021/08/19 19:57:14;;;;;;;;;1.67;1.00;;;;;;;;2567847;30;151225;-75
2021/08/19 19:59:44;;;;;;;;;4.33;3.67;;;;;;;;2572985;30;151062;-73
2021/08/19 20:02:12;;;;;;;;;8.33;8.33;;;;;;;;2567581;38;149869;-73
2021/08/19 20:04:41;;;;;;;;;3.67;3.00;;;;;;;;2567238;38;150995;-74
2021/08/19 20:07:09;;;;;;;;;2.00;2.00;;;;;;;;2570253;30;150963;-73
2021/08/19 20:09:37;;;;;;;;;2.00;2.00;;;;;;;;2570446;30;151093;-72
2021/08/19 20:12:09;;;;;;;;;4.33;3.33;;;;;;;;2569504;30;151883;-72
2021/08/19 20:14:37;;;;;;;;;3.00;3.00;;;;;;;;2563992;38;149351;-71
2021/08/19 20:17:05;;;;;;;;;2.00;2.00;;;;;;;;2564837;30;151845;-71
2021/08/19 20:19:34;;;;;;;;;2.00;2.00;;;;;;;;2564913;38;152096;-71
2021/08/19 20:22:02;;;;;;;;;1.33;1.33;;;;;;;;2564633;38;150008;-71
2021/08/19 20:24:30;;;;;;;;;2.67;2.00;;;;;;;;2564503;38;150731;-73
2021/08/19 20:26:59;;;;;;;;;4.33;3.33;;;;;;;;2563914;30;150753;-72
2021/08/19 20:29:30;;;;;;;;;6.00;5.00;;;;;;;;2569004;30;149861;-72
2021/08/19 20:31:59;;;;;;;;;2.00;2.00;;;;;;;;2563683;38;151821;-73
2021/08/19 20:34:28;;;;;;;;;2.00;1.67;;;;;;;;2565035;30;150185;-73
2021/08/19 20:36:56;;;;;;;;;2.00;2.00;;;;;;;;2567331;30;150692;-72
2021/08/19 20:39:25;;;;;;;;;4.00;4.00;;;;;;;;2564586;38;152708;-73
2021/08/19 20:41:53;;;;;;;;;4.00;1.67;;;;;;;;2567351;30;151083;-72
2021/08/19 20:44:22;;;;;;;;;2.00;2.00;;;;;;;;2567768;30;149806;-74
2021/08/19 20:46:53;;;;;;;;;2.00;1.00;;;;;;;;2566093;30;151699;-75
2021/08/19 20:49:21;;;;;;;;;3.00;3.00;;;;;;;;2564003;38;149561;-71
2021/08/19 20:51:52;;;;;;;;;2.00;2.00;;;;;;;;2565942;38;150314;-71
2021/08/19 20:54:20;;;;;;;;;4.00;3.00;;;;;;;;2565246;30;149760;-71
2021/08/19 20:56:49;;;;;;;;;3.33;2.33;;;;;;;;2565388;30;151118;-70
2021/08/19 20:59:17;;;;;;;;;2.00;2.00;;;;;;;;2566664;30;152001;-73
2021/08/19 21:01:45;;;;;;;;;2.00;2.00;;;;;;;;2565688;30;149704;-73
2021/08/19 21:04:16;;;;;;;;;1.33;1.33;;;;;;;;2565311;30;150597;-74
2021/08/19 21:06:45;;;;;;;;;2.00;0.00;;;;;;;;2566795;30;151091;-73
2021/08/19 21:09:13;;;;;;;;;2.67;2.67;;;;;;;;2567086;30;150177;-73
2021/08/19 21:11:41;;;;;;;;;2.00;2.00;;;;;;;;2565382;38;150708;-73
2021/08/19 21:14:10;;;;;;;;;2.00;2.00;;;;;;;;2570580;30;149463;-72
2021/08/19 21:16:39;;;;;;;;;3.00;3.00;;;;;;;;2565252;30;151402;-72
2021/08/19 21:19:08;;;;;;;;;3.00;3.00;;;;;;;;2564253;30;151726;-73
2021/08/19 21:21:39;;;;;;;;;3.00;3.00;;;;;;;;2567882;30;149723;-70
2021/08/19 21:24:07;;;;;;;;;1.00;0.00;;;;;;;;2564561;30;151581;-70
2021/08/19 21:26:36;;;;;;;;;3.00;3.00;;;;;;;;2566654;30;151905;-70
2021/08/19 21:29:04;;;;;;;;;2.00;2.00;;;;;;;;2564579;38;149551;-71
2021/08/19 21:31:32;;;;;;;;;4.00;4.00;;;;;;;;2563849;30;151430;-72
2021/08/19 21:34:01;;;;;;;;;3.00;3.00;;;;;;;;2565668;38;151250;-72
2021/08/19 21:36:29;;;;;;;;;6.00;3.33;;;;;;;;2567649;30;151362;-72
2021/08/19 21:39:00;;;;;;;;;3.67;3.67;;;;;;;;2564376;30;151106;-73
2021/08/19 21:41:31;;;;;;;;;5.67;4.00;;;;;;;;2563014;30;149721;-74
2021/08/19 21:44:00;;;;;;;;;3.00;2.33;;;;;;;;2564455;30;151481;-72
2021/08/19 21:46:29;;;;;;;;;4.00;3.67;;;;;;;;2566061;30;151311;-72
2021/08/19 21:48:57;;;;;;;;;3.00;3.00;;;;;;;;2565583;30;150068;-72
2021/08/19 21:51:26;;;;;;;;;3.00;3.00;;;;;;;;2564299;38;150703;-70
2021/08/19 21:53:54;;;;;;;;;2.33;2.33;;;;;;;;2562737;30;152375;-70
2021/08/19 21:56:25;;;;;;;;;5.00;3.67;;;;;;;;2567279;30;150690;-71
2021/08/19 21:58:53;;;;;;;;;6.67;2.33;;;;;;;;2565499;30;152047;-73
2021/08/19 22:01:22;;;;;;;;;3.00;3.00;;;;;;;;2567375;30;149654;-72
2021/08/19 22:03:50;;;;;;;;;4.00;4.00;;;;;;;;2565251;30;151321;-73
2021/08/19 22:06:18;;;;;;;;;4.00;4.00;;;;;;;;2563581;30;151373;-72
2021/08/19 22:08:47;;;;;;;;;3.00;3.00;;;;;;;;2565719;30;149641;-71
2021/08/19 22:11:15;;;;;;;;;3.33;3.33;;;;;;;;2563415;30;151416;-72
2021/08/19 22:13:48;;;;;;;;;3.00;1.67;;;;;;;;2565313;38;151178;-71
2021/08/19 22:16:17;;;;;;;;;2.33;2.00;;;;;;;;2566664;30;150351;-75
2021/08/19 22:18:46;;;;;;;;;5.00;3.00;;;;;;;;2566860;30;151386;-73
2021/08/19 22:21:14;;;;;;;;;3.33;2.67;;;;;;;;2566894;30;149357;-72
2021/08/19 22:23:42;;;;;;;;;3.00;3.00;;;;;;;;2564674;38;151326;-73
2021/08/19 22:26:11;;;;;;;;;4.00;4.00;;;;;;;;2569679;30;151682;-73
2021/08/19 22:28:39;;;;;;;;;3.33;3.33;;;;;;;;2568536;30;149294;-73
2021/08/19 22:31:10;;;;;;;;;3.00;3.00;;;;;;;;2566298;30;151006;-75
2021/08/19 22:33:38;;;;;;;;;5.00;3.00;;;;;;;;2566925;30;152023;-74
2021/08/19 22:36:07;;;;;;;;;5.00;4.00;;;;;;;;2566367;30;151140;-75
2021/08/19 22:38:36;;;;;;;;;2.67;2.67;;;;;;;;2565528;30;151368;-74
2021/08/19 22:41:05;;;;;;;;;4.00;4.00;;;;;;;;2566708;30;151635;-74
2021/08/19 22:43:35;;;;;;;;;4.00;4.00;;;;;;;;2568957;30;150443;-75
2021/08/19 22:46:04;;;;;;;;;3.00;3.00;;;;;;;;2565241;30;151869;-71
2021/08/19 22:48:37;;;;;;;;;4.00;3.00;;;;;;;;2564419;38;149579;-71
2021/08/19 22:51:06;;;;;;;;;4.67;3.33;;;;;;;;2567155;30;151418;-71
2021/08/19 22:53:36;;;;;;;;;3.00;3.00;;;;;;;;2566365;30;151799;-74
2021/08/19 22:56:04;;;;;;;;;1.33;1.33;;;;;;;;2564571;30;149567;-73
2021/08/19 22:58:32;;;;;;;;;3.67;3.00;;;;;;;;2567128;30;151061;-73
2021/08/19 23:01:01;;;;;;;;;4.00;4.00;;;;;;;;2563110;30;150909;-73
2021/08/19 23:03:32;;;;;;;;;5.00;4.00;;;;;;;;2569374;30;149350;-74
2021/08/19 23:06:03;;;;;;;;;3.67;3.67;;;;;;;;2564973;30;151671;-74
2021/08/19 23:08:31;;;;;;;;;5.33;4.00;;;;;;;;2566312;30;151023;-75
2021/08/19 23:10:59;;;;;;;;;3.33;3.33;;;;;;;;2565926;38;151309;-74
2021/08/19 23:13:28;;;;;;;;;3.00;3.00;;;;;;;;2564046;38;152257;-74
2021/08/19 23:15:57;;;;;;;;;4.00;4.00;;;;;;;;2564889;38;150305;-74
2021/08/19 23:18:28;;;;;;;;;3.33;3.33;;;;;;;;2565206;38;150801;-75
2021/08/19 23:20:56;;;;;;;;;2.00;2.00;;;;;;;;2566178;30;152025;-73
2021/08/19 23:23:27;;;;;;;;;3.00;3.00;;;;;;;;2566315;31;149828;-73
2021/08/19 23:25:55;;;;;;;;;2.00;1.00;;;;;;;;2564775;38;151161;-73
2021/08/19 23:28:24;;;;;;;;;5.33;4.33;;;;;;;;2568542;30;149562;-74
2021/08/19 23:30:52;;;;;;;;;4.00;4.00;;;;;;;;2563905;30;151200;-73
2021/08/19 23:33:21;;;;;;;;;3.33;3.00;;;;;;;;2565131;30;150731;-73
2021/08/19 23:35:50;;;;;;;;;5.00;4.33;;;;;;;;2565359;30;149228;-74
2021/08/19 23:38:18;;;;;;;;;4.00;4.00;;;;;;;;2565382;38;151737;-72
2021/08/19 23:40:49;;;;;;;;;4.00;4.00;;;;;;;;2565790;30;153110;-73
2021/08/19 23:43:17;;;;;;;;;6.00;6.00;;;;;;;;2566518;30;149279;-74
2021/08/19 23:45:46;;;;;;;;;6.00;5.00;;;;;;;;2567746;38;152264;-72
2021/08/19 23:48:14;;;;;;;;;4.00;4.00;;;;;;;;2564402;38;149761;-73
2021/08/19 23:50:42;;;;;;;;;5.00;5.00;;;;;;;;2567065;30;150683;-73
2021/08/19 23:53:10;;;;;;;;;5.00;3.67;;;;;;;;2564814;30;150987;-73
2021/08/19 23:55:39;;;;;;;;;3.00;3.00;;;;;;;;2567686;30;149363;-73
2021/08/19 23:58:10;;;;;;;;;4.00;4.00;;;;;;;;2568883;30;150735;-73
